Time;durP1;ratioP1;P1;durP2;ratioP2;P2;SDS_P1;SDS_P2;PMS_P1;PMS_P2;Temp;Humidity;BMP_temperature;BMP_pressure;BME280_temperature;BME280_humidity;BME280_pressure;Samples;Min_cycle;Max_cycle;Signal;HPM_P1;HPM_P2
2022/12/26 00:04:05;;;;;;;17.07;7.13;;;;;5.80;96284.00;;;;8270473;28;20218;-76
2022/12/26 00:08:37;;;;;;;17.30;7.60;;;;;5.70;96278.00;;;;8270485;28;20199;-76
2022/12/26 00:13:13;;;;;;;17.93;7.90;;;;;5.70;96281.00;;;;8270011;28;20602;-76
2022/12/26 00:17:36;;;;;;;16.03;8.10;;;;;5.80;96273.00;;;;8269899;28;20226;-76
2022/12/26 00:22:15;;;;;;;22.77;11.50;;;;;5.90;96274.00;;;;8270316;28;20199;-76
2022/12/26 00:26:23;;;;;;;18.07;7.50;;;;;6.10;96282.00;;;;8268687;28;20593;-76
2022/12/26 00:30:53;;;;;;;18.97;8.27;;;;;6.20;96270.00;;;;8271023;28;20195;-76
2022/12/26 00:34:56;;;;;;;17.77;9.10;;;;;6.40;96282.00;;;;8268942;28;20636;-76
2022/12/26 00:39:35;;;;;;;22.10;9.13;;;;;6.60;96283.00;;;;8269247;28;20230;-76
2022/12/26 00:43:39;;;;;;;19.63;9.10;;;;;6.90;96292.00;;;;8270240;28;20202;-76
2022/12/26 00:47:50;;;;;;;14.70;7.50;;;;;7.00;96292.00;;;;8269810;28;20253;-76
2022/12/26 00:51:53;;;;;;;16.03;7.60;;;;;7.00;96281.00;;;;8268099;28;20286;-76
2022/12/26 00:56:34;;;;;;;15.13;8.20;;;;;7.10;96286.00;;;;8268789;28;20256;-76
2022/12/26 01:00:37;;;;;;;13.53;6.93;;;;;7.10;96285.00;;;;8269095;28;20277;-76
2022/12/26 01:05:14;;;;;;;15.73;7.47;;;;;7.20;96299.00;;;;8269073;28;20842;-75
2022/12/26 01:09:20;;;;;;;18.03;7.53;;;;;7.30;96312.00;;;;8268053;28;20198;-76
2022/12/26 01:13:25;;;;;;;15.90;7.37;;;;;7.30;96304.00;;;;8267864;28;20242;-76
2022/12/26 01:17:30;;;;;;;16.17;7.30;;;;;7.30;96316.00;;;;8267260;28;20226;-76
2022/12/26 01:22:07;;;;;;;17.90;7.07;;;;;7.30;96311.00;;;;8268397;28;20246;-76
2022/12/26 01:26:43;;;;;;;12.35;6.75;;;;;7.30;96319.00;;;;8267522;28;20600;-76
2022/12/26 01:31:21;;;;;;;11.63;6.70;;;;;7.30;96323.00;;;;8267243;28;20179;-77
2022/12/26 01:35:25;;;;;;;13.27;6.77;;;;;7.30;96307.00;;;;8267801;28;20240;-76
2022/12/26 01:39:28;;;;;;;14.13;6.70;;;;;7.20;96313.00;;;;8265452;28;20309;-77
2022/12/26 01:44:04;;;;;;;11.50;6.57;;;;;7.10;96323.00;;;;8267860;28;20568;-76
2022/12/26 01:48:43;;;;;;;12.40;6.23;;;;;7.00;96326.00;;;;8266455;28;20199;-76
2022/12/26 01:52:47;;;;;;;11.97;6.43;;;;;7.10;96329.00;;;;8266257;28;20307;-77
2022/12/26 01:57:23;;;;;;;10.60;5.97;;;;;7.10;96312.00;;;;8266741;28;20254;-76
2022/12/26 02:01:31;;;;;;;11.10;6.30;;;;;7.10;96309.00;;;;8266910;28;20250;-76
2022/12/26 02:06:05;;;;;;;12.00;6.00;;;;;7.10;96316.00;;;;8266570;28;20257;-76
2022/12/26 02:10:12;;;;;;;10.47;6.40;;;;;7.10;96320.00;;;;8268104;28;20199;-76
2022/12/26 02:14:47;;;;;;;11.83;6.30;;;;;7.00;96311.00;;;;8267018;28;20270;-76
2022/12/26 02:18:50;;;;;;;18.20;6.13;;;;;7.00;96314.00;;;;8267543;28;20223;-76
2022/12/26 02:23:31;;;;;;;13.20;6.20;;;;;6.90;96313.00;;;;8266602;28;20190;-76
2022/12/26 02:28:22;;;;;;;13.87;6.20;;;;;6.90;96289.00;;;;8267089;28;20206;-76
2022/12/26 02:32:41;;;;;;;12.90;6.57;;;;;6.90;96302.00;;;;8257469;28;20286;-76
2022/12/26 02:37:21;;;;;;;11.17;6.37;;;;;6.90;96304.00;;;;8265203;28;20195;-76
2022/12/26 02:41:40;;;;;;;11.97;6.37;;;;;7.00;96285.00;;;;8266666;28;20705;-76
2022/12/26 03:13:12;;;;;;;12.93;6.33;;;;;7.30;96281.00;;;;8354575;28;20684;-76
2022/12/26 03:17:31;;;;;;;11.70;5.40;;;;;7.40;96282.00;;;;8346751;28;20205;-76
2022/12/26 03:21:39;;;;;;;14.97;5.77;;;;;7.30;96269.00;;;;8349321;28;20385;-75
2022/12/26 03:34:30;;;;;;;14.70;6.73;;;;;7.30;96283.00;;;;8347738;28;20245;-76
2022/12/26 03:38:54;;;;;;;10.73;5.90;;;;;7.40;96287.00;;;;8332872;28;20228;-76
2022/12/26 04:45:20;;;;;;;7.30;5.28;;;;;8.60;96312.00;;;;8346115;28;20212;-76
2022/12/26 04:53:51;;;;;;;10.10;5.53;;;;;9.10;96314.00;;;;8338175;28;20638;-76
2022/12/26 04:57:55;;;;;;;9.77;5.13;;;;;9.20;96314.00;;;;8348484;28;20205;-76
2022/12/26 05:10:43;;;;;;;7.70;5.28;;;;;9.60;96308.00;;;;8341028;28;20279;-76
2022/12/26 05:14:47;;;;;;;5.55;4.10;;;;;9.60;96300.00;;;;8336608;28;20259;-76
2022/12/26 05:32:05;;;;;;;6.95;4.10;;;;;9.80;96325.00;;;;8343327;28;20784;-76
2022/12/26 05:36:11;;;;;;;6.75;4.10;;;;;9.80;96330.00;;;;8340643;28;20270;-76
2022/12/26 05:40:15;;;;;;;5.03;3.88;;;;;9.80;96321.00;;;;8344527;28;20244;-76
2022/12/26 05:44:20;;;;;;;5.53;4.07;;;;;9.90;96332.00;;;;8344908;28;20201;-76
2022/12/26 05:48:24;;;;;;;4.30;3.65;;;;;9.90;96328.00;;;;8343744;28;20246;-76
2022/12/26 05:52:35;;;;;;;5.30;3.47;;;;;10.00;96332.00;;;;8323301;28;20201;-73
2022/12/26 05:56:43;;;;;;;4.35;3.75;;;;;10.10;96336.00;;;;8341273;28;20258;-73
2022/12/26 06:00:52;;;;;;;4.40;3.47;;;;;10.20;96327.00;;;;8342905;28;20233;-75
2022/12/26 06:04:56;;;;;;;4.93;3.38;;;;;10.30;96337.00;;;;8338982;28;20262;-74
2022/12/26 06:08:59;;;;;;;6.63;3.78;;;;;10.40;96328.00;;;;8343293;28;20250;-75
2022/12/26 06:13:02;;;;;;;3.72;3.28;;;;;10.60;96332.00;;;;8349126;28;20777;-75
2022/12/26 06:17:08;;;;;;;4.22;3.22;;;;;10.70;96332.00;;;;8348602;28;20275;-75
2022/12/26 06:21:16;;;;;;;5.15;3.53;;;;;10.80;96332.00;;;;8335047;28;20825;-74
2022/12/26 06:25:19;;;;;;;3.50;3.08;;;;;10.80;96321.00;;;;8343190;28;20263;-75
2022/12/26 06:29:29;;;;;;;4.22;3.40;;;;;10.80;96327.00;;;;8342653;28;20247;-75
2022/12/26 06:33:37;;;;;;;5.72;3.72;;;;;10.70;96337.00;;;;8342616;28;20578;-76
2022/12/26 06:37:42;;;;;;;5.13;3.45;;;;;10.70;96341.00;;;;8327757;28;20254;-76
2022/12/26 06:41:47;;;;;;;3.45;3.15;;;;;10.60;96322.00;;;;8338922;28;20297;-76
2022/12/26 06:45:57;;;;;;;4.28;3.30;;;;;10.60;96328.00;;;;8329155;28;20788;-76
2022/12/26 06:50:03;;;;;;;4.47;3.42;;;;;10.50;96321.00;;;;8338727;28;20214;-76
2022/12/26 06:54:06;;;;;;;4.38;3.05;;;;;10.60;96326.00;;;;8339880;28;20213;-76
2022/12/26 06:58:11;;;;;;;6.22;3.95;;;;;10.60;96322.00;;;;8338083;28;20206;-76
2022/12/26 07:02:14;;;;;;;4.97;3.00;;;;;10.60;96321.00;;;;8339224;28;20348;-76
2022/12/26 07:06:25;;;;;;;4.88;3.10;;;;;10.60;96317.00;;;;8338609;28;20288;-76
2022/12/26 07:10:35;;;;;;;3.45;3.15;;;;;10.50;96317.00;;;;8346339;28;20651;-76
2022/12/26 07:14:42;;;;;;;3.60;3.20;;;;;10.60;96311.00;;;;8336172;28;20208;-76
2022/12/26 07:18:45;;;;;;;4.90;3.60;;;;;10.60;96313.00;;;;8344753;28;20259;-76
2022/12/26 07:22:54;;;;;;;5.35;4.10;;;;;10.50;96325.00;;;;8336390;28;20239;-76
2022/12/26 07:27:00;;;;;;;6.47;3.85;;;;;10.60;96341.00;;;;8331092;28;20196;-76
2022/12/26 07:31:05;;;;;;;4.60;3.05;;;;;10.60;96348.00;;;;8345720;28;20246;-76
2022/12/26 07:35:09;;;;;;;5.25;3.00;;;;;10.60;96348.00;;;;8345515;28;20201;-76
2022/12/26 07:39:38;;;;;;;3.63;3.30;;;;;10.60;96351.00;;;;8343372;28;20595;-75
2022/12/26 07:43:43;;;;;;;3.92;3.20;;;;;10.60;96352.00;;;;8346583;28;20718;-76
2022/12/26 07:47:51;;;;;;;6.57;3.60;;;;;10.50;96355.00;;;;8322209;28;20205;-77
2022/12/26 07:51:57;;;;;;;4.95;3.70;;;;;10.40;96354.00;;;;8340922;28;20191;-73
2022/12/26 07:56:03;;;;;;;6.88;3.50;;;;;10.40;96363.00;;;;8330052;28;20207;-73
2022/12/26 08:00:21;;;;;;;3.97;3.22;;;;;10.30;96357.00;;;;8329442;28;20238;-73
2022/12/26 08:04:27;;;;;;;4.97;3.22;;;;;10.30;96378.00;;;;8334867;28;20232;-73
2022/12/26 08:08:58;;;;;;;3.40;3.10;;;;;10.30;96384.00;;;;8330217;28;20202;-75
2022/12/26 08:13:16;;;;;;;3.80;3.03;;;;;10.40;96365.00;;;;8344029;28;20199;-76
2022/12/26 08:17:22;;;;;;;3.83;3.28;;;;;10.50;96358.00;;;;8341708;28;20195;-75
2022/12/26 08:21:27;;;;;;;3.75;3.42;;;;;10.60;96354.00;;;;8348648;28;20341;-76
2022/12/26 08:25:33;;;;;;;5.82;3.38;;;;;10.60;96373.00;;;;8345314;28;20204;-77
2022/12/26 08:29:37;;;;;;;3.95;3.25;;;;;10.60;96360.00;;;;8343661;28;20282;-77
2022/12/26 08:33:45;;;;;;;3.78;3.30;;;;;10.80;96370.00;;;;8331412;28;20268;-76
2022/12/26 08:37:50;;;;;;;4.45;3.67;;;;;11.00;96366.00;;;;8349645;28;20202;-76
2022/12/26 08:41:53;;;;;;;5.28;3.22;;;;;11.00;96369.00;;;;8341911;28;20225;-76
2022/12/26 08:46:03;;;;;;;7.10;3.83;;;;;11.10;96376.00;;;;8345282;28;20793;-77
2022/12/26 08:50:10;;;;;;;5.80;3.45;;;;;11.10;96379.00;;;;8343310;28;20563;-78
2022/12/26 08:54:14;;;;;;;57.67;48.20;;;;;11.10;96375.00;;;;8348953;28;20202;-78
2022/12/26 08:58:18;;;;;;;37.35;23.73;;;;;11.10;96371.00;;;;8336539;28;20216;-79
2022/12/26 09:02:32;;;;;;;215.82;93.38;;;;;11.10;96362.00;;;;8336473;28;20281;-78
2022/12/26 09:06:38;;;;;;;17.95;13.02;;;;;11.10;96356.00;;;;8336449;28;20726;-78
2022/12/26 09:10:41;;;;;;;10.95;8.32;;;;;11.20;96355.00;;;;8336115;28;20714;-80
2022/12/26 09:14:52;;;;;;;9.77;5.32;;;;;11.30;96364.00;;;;8317392;28;20304;-78
2022/12/26 09:19:01;;;;;;;7.00;5.13;;;;;11.40;96364.00;;;;8335304;28;20201;-78
2022/12/26 09:23:09;;;;;;;7.10;6.43;;;;;11.40;96370.00;;;;8314127;28;20227;-78
2022/12/26 09:27:15;;;;;;;64.10;55.97;;;;;11.40;96389.00;;;;8337328;28;20202;-77
2022/12/26 09:31:21;;;;;;;10.75;9.68;;;;;11.40;96380.00;;;;8335502;28;20867;-75
2022/12/26 09:35:26;;;;;;;8.95;6.30;;;;;11.30;96386.00;;;;8339932;28;20207;-78
2022/12/26 09:39:42;;;;;;;8.27;5.15;;;;;11.10;96397.00;;;;8341906;28;20201;-80
2022/12/26 09:44:05;;;;;;;6.25;5.43;;;;;10.90;96393.00;;;;8336309;28;20209;-81
2022/12/26 09:48:19;;;;;;;6.93;5.95;;;;;10.80;96387.00;;;;8327245;28;20678;-77
2022/12/26 09:52:29;;;;;;;6.28;5.30;;;;;10.70;96389.00;;;;8338222;28;20278;-78
2022/12/26 09:56:39;;;;;;;10.63;7.10;;;;;10.50;96387.00;;;;8327746;28;20562;-76
2022/12/26 10:01:12;;;;;;;8.10;4.97;;;;;10.40;96388.00;;;;8341103;28;20228;-75
2022/12/26 10:05:16;;;;;;;20.75;14.65;;;;;10.20;96389.00;;;;8320995;28;20234;-74
2022/12/26 10:09:50;;;;;;;30.80;23.58;;;;;10.10;96382.00;;;;8333974;28;20282;-73
2022/12/26 10:14:00;;;;;;;15.00;10.40;;;;;10.10;96355.00;;;;8331034;28;20205;-74
2022/12/26 10:18:20;;;;;;;12.70;6.70;;;;;10.10;96375.00;;;;8315183;28;20193;-73
2022/12/26 10:22:57;;;;;;;8.70;5.83;;;;;10.00;96369.00;;;;8334785;28;20256;-75
2022/12/26 10:27:12;;;;;;;9.52;5.22;;;;;10.00;96370.00;;;;8331859;28;20247;-74
2022/12/26 10:31:24;;;;;;;14.30;7.03;;;;;10.00;96378.00;;;;8334368;28;20210;-73
2022/12/26 10:35:33;;;;;;;9.32;5.97;;;;;9.90;96379.00;;;;8329337;28;20221;-77
2022/12/26 10:39:46;;;;;;;8.23;6.38;;;;;9.90;96380.00;;;;8324659;28;20214;-74
2022/12/26 10:43:51;;;;;;;9.18;5.65;;;;;9.90;96368.00;;;;8339181;28;20888;-76
2022/12/26 10:47:55;;;;;;;12.00;6.13;;;;;10.00;96354.00;;;;8334324;28;20670;-73
2022/12/26 10:52:00;;;;;;;15.63;6.22;;;;;10.00;96341.00;;;;8339889;28;20193;-75
2022/12/26 10:56:05;;;;;;;12.90;5.85;;;;;10.10;96344.00;;;;8340742;28;20718;-76
2022/12/26 11:00:19;;;;;;;11.57;6.88;;;;;10.20;96341.00;;;;8340977;28;20205;-77
2022/12/26 11:04:26;;;;;;;12.13;6.43;;;;;10.30;96335.00;;;;8332554;28;20275;-75
2022/12/26 11:08:50;;;;;;;12.13;6.82;;;;;10.30;96334.00;;;;8349813;28;20550;-74
2022/12/26 11:12:59;;;;;;;10.13;7.00;;;;;10.40;96339.00;;;;8345048;28;20205;-74
2022/12/26 11:17:12;;;;;;;11.52;6.53;;;;;10.50;96350.00;;;;8353815;28;20215;-78
2022/12/26 11:21:24;;;;;;;15.52;7.35;;;;;10.60;96353.00;;;;8348003;28;20290;-76
2022/12/26 11:25:35;;;;;;;14.48;7.80;;;;;10.60;96364.00;;;;8345946;28;20258;-73
2022/12/26 11:29:41;;;;;;;12.35;6.95;;;;;10.60;96373.00;;;;8345855;28;20831;-76
2022/12/26 11:33:47;;;;;;;15.25;7.38;;;;;10.60;96378.00;;;;8343046;28;20799;-75
2022/12/26 11:37:53;;;;;;;69.72;51.05;;;;;10.50;96379.00;;;;8338001;28;20208;-76
2022/12/26 11:42:00;;;;;;;11.65;6.78;;;;;10.50;96383.00;;;;8335100;28;20229;-76
2022/12/26 11:46:03;;;;;;;18.27;6.78;;;;;10.50;96373.00;;;;8331636;28;20245;-76
2022/12/26 11:50:16;;;;;;;15.07;7.13;;;;;10.50;96384.00;;;;8342972;28;20233;-78
2022/12/26 11:54:26;;;;;;;13.82;7.75;;;;;10.50;96392.00;;;;8331806;28;20211;-78
2022/12/26 11:58:31;;;;;;;12.32;6.35;;;;;10.50;96401.00;;;;8336808;28;20577;-77
2022/12/26 12:02:39;;;;;;;11.85;7.18;;;;;10.50;96402.00;;;;8332671;28;20236;-78
2022/12/26 12:06:59;;;;;;;17.05;7.82;;;;;10.50;96408.00;;;;8334908;28;20205;-77
2022/12/26 12:11:17;;;;;;;16.75;6.82;;;;;10.50;96415.00;;;;8331540;28;20258;-79
2022/12/26 12:15:25;;;;;;;15.27;7.05;;;;;10.50;96431.00;;;;8328671;28;20202;-78
2022/12/26 12:19:46;;;;;;;11.68;5.45;;;;;10.50;96441.00;;;;8330835;28;20269;-79
2022/12/26 12:24:09;;;;;;;15.55;6.97;;;;;10.50;96435.00;;;;8338236;28;20230;-74
2022/12/26 12:28:30;;;;;;;14.60;6.15;;;;;10.50;96436.00;;;;8333981;28;20232;-77
2022/12/26 12:32:46;;;;;;;11.13;6.35;;;;;10.50;96435.00;;;;8332703;28;20199;-72
2022/12/26 12:37:23;;;;;;;11.00;5.38;;;;;10.50;96420.00;;;;8334273;28;20264;-70
2022/12/26 12:41:58;;;;;;;10.13;5.05;;;;;10.50;96414.00;;;;8333407;28;20226;-70
2022/12/26 12:46:30;;;;;;;13.40;5.90;;;;;10.50;96406.00;;;;8335038;28;20194;-71
2022/12/26 12:51:05;;;;;;;12.80;7.22;;;;;10.60;96401.00;;;;8333950;28;20275;-72
2022/12/26 12:55:55;;;;;;;15.38;6.35;;;;;10.70;96384.00;;;;8333701;28;20190;-72
2022/12/26 13:00:20;;;;;;;12.15;5.05;;;;;10.70;96395.00;;;;8333003;28;20249;-72
2022/12/26 13:04:56;;;;;;;9.43;5.35;;;;;10.70;96396.00;;;;8334525;28;20234;-72
2022/12/26 13:09:05;;;;;;;9.18;4.80;;;;;10.70;96392.00;;;;8333414;28;20634;-72
2022/12/26 13:13:38;;;;;;;9.43;4.55;;;;;10.70;96384.00;;;;8333353;28;20198;-72
2022/12/26 13:18:02;;;;;;;8.80;3.55;;;;;10.60;96374.00;;;;8332686;28;20187;-72
2022/12/26 13:24:22;;;;;;;7.65;3.42;;;;;10.50;96367.00;;;;8333041;28;20684;-72
2022/12/26 13:27:02;;;;;;;5.18;3.40;;;;;10.50;96392.00;;;;8332133;28;20223;-72
2022/12/26 13:31:41;;;;;;;7.78;3.58;;;;;10.40;96402.00;;;;8332425;28;20209;-71
2022/12/26 13:36:31;;;;;;;4.53;3.00;;;;;10.40;96441.00;;;;8311874;28;20195;-72
2022/12/26 13:40:48;;;;;;;6.47;3.05;;;;;10.40;96420.00;;;;8332489;28;20224;-74
2022/12/26 13:45:30;;;;;;;7.13;3.72;;;;;10.40;96428.00;;;;8332326;28;20313;-74
2022/12/26 13:50:19;;;;;;;4.25;3.53;;;;;10.40;96394.00;;;;8332223;28;20246;-74
2022/12/26 13:54:26;;;;;;;6.38;3.63;;;;;10.40;96387.00;;;;8285229;28;20212;-74
2022/12/26 13:59:07;;;;;;;3.75;3.13;;;;;10.40;96407.00;;;;8332331;28;20193;-74
2022/12/26 14:08:41;;;;;;;8.07;3.58;;;;;10.40;96426.00;;;;8330715;28;20225;-75
2022/12/26 14:13:21;;;;;;;5.03;3.30;;;;;10.40;96439.00;;;;8330208;28;20195;-75
2022/12/26 14:18:07;;;;;;;6.28;3.53;;;;;10.40;96440.00;;;;8329037;28;20197;-75
2022/12/26 14:22:44;;;;;;;4.60;3.65;;;;;10.40;96435.00;;;;8331538;28;20218;-76
2022/12/26 14:27:24;;;;;;;9.98;5.80;;;;;10.40;96434.00;;;;8330854;28;20234;-75
2022/12/26 14:32:02;;;;;;;7.45;4.45;;;;;10.30;96434.00;;;;8331839;28;20674;-76
2022/12/26 14:36:33;;;;;;;5.78;4.07;;;;;10.30;96449.00;;;;8331272;28;20201;-76
2022/12/26 14:43:09;;;;;;;15.32;10.38;;;;;10.20;96439.00;;;;8330261;28;20205;-76
2022/12/26 14:45:56;;;;;;;6.72;5.53;;;;;10.10;96434.00;;;;8329218;28;20288;-76
2022/12/26 14:50:35;;;;;;;7.13;5.65;;;;;10.10;96425.00;;;;8331433;28;20622;-76
2022/12/26 14:55:15;;;;;;;4.60;3.20;;;;;10.10;96425.00;;;;8324437;28;20225;-77
2022/12/26 14:59:30;;;;;;;6.78;4.03;;;;;10.10;96420.00;;;;8330929;28;20550;-77
2022/12/26 15:09:16;;;;;;;8.10;3.47;;;;;10.10;96412.00;;;;8329572;28;20241;-76
2022/12/26 15:13:50;;;;;;;8.98;4.70;;;;;10.10;96401.00;;;;8330542;28;20212;-77
2022/12/26 15:18:23;;;;;;;7.40;4.57;;;;;10.00;96383.00;;;;8329703;28;20195;-77
2022/12/26 15:23:11;;;;;;;8.32;4.88;;;;;10.00;96409.00;;;;8311018;28;20226;-77
2022/12/26 15:27:44;;;;;;;8.25;4.50;;;;;9.90;96432.00;;;;8330378;28;20194;-78
2022/12/26 15:32:03;;;;;;;11.65;5.03;;;;;10.00;96428.00;;;;8329195;28;20253;-75
2022/12/26 15:36:31;;;;;;;12.38;4.95;;;;;10.00;96424.00;;;;8326915;28;20202;-76
2022/12/26 15:41:12;;;;;;;12.18;5.70;;;;;10.00;96419.00;;;;8325275;28;20193;-74
2022/12/26 15:45:47;;;;;;;10.85;5.50;;;;;10.00;96432.00;;;;8328888;28;20222;-74
2022/12/26 15:50:23;;;;;;;15.77;6.60;;;;;10.00;96410.00;;;;8329790;28;20280;-75
2022/12/26 15:55:03;;;;;;;13.98;6.70;;;;;10.00;96417.00;;;;8330172;28;20586;-74
2022/12/26 15:59:48;;;;;;;16.38;6.72;;;;;10.00;96421.00;;;;8335522;28;20198;-75
2022/12/26 16:03:56;;;;;;;12.82;6.35;;;;;10.00;96422.00;;;;8304850;28;20244;-75
2022/12/26 16:08:47;;;;;;;15.48;7.05;;;;;10.00;96418.00;;;;8335712;28;20205;-75
2022/12/26 16:18:26;;;;;;;18.98;7.88;;;;;10.00;96413.00;;;;8336092;28;20243;-75
2022/12/26 16:23:02;;;;;;;18.23;8.43;;;;;10.00;96419.00;;;;8329544;28;20232;-75
2022/12/26 16:27:37;;;;;;;14.93;7.75;;;;;10.00;96411.00;;;;8333217;28;20661;-75
2022/12/26 16:32:11;;;;;;;14.77;7.43;;;;;10.10;96431.00;;;;8334324;28;20201;-75
2022/12/26 16:36:49;;;;;;;15.93;7.43;;;;;10.10;96437.00;;;;8334934;28;20220;-75
2022/12/26 16:41:25;;;;;;;19.08;8.93;;;;;10.00;96428.00;;;;8334923;28;20237;-75
2022/12/26 16:46:03;;;;;;;12.88;7.03;;;;;10.00;96423.00;;;;8335507;28;20554;-75
2022/12/26 16:50:35;;;;;;;15.02;7.50;;;;;10.00;96439.00;;;;8335116;28;20213;-75
2022/12/26 16:55:15;;;;;;;13.10;6.80;;;;;10.00;96444.00;;;;8333108;28;20252;-75
2022/12/26 16:59:56;;;;;;;15.63;7.15;;;;;10.10;96447.00;;;;8334093;28;20202;-75
2022/12/26 17:09:38;;;;;;;12.45;6.55;;;;;10.10;96437.00;;;;8330862;28;20209;-75
2022/12/26 17:14:07;;;;;;;10.70;5.32;;;;;10.10;96435.00;;;;8331820;28;20589;-75
2022/12/26 17:18:45;;;;;;;12.95;6.03;;;;;10.10;96420.00;;;;8333870;28;20201;-75
2022/12/26 17:23:25;;;;;;;10.60;5.28;;;;;10.10;96403.00;;;;8333710;28;20582;-75
2022/12/26 17:28:07;;;;;;;12.27;6.20;;;;;10.10;96410.00;;;;8332673;28;20643;-75
2022/12/26 17:32:44;;;;;;;11.30;6.05;;;;;10.00;96404.00;;;;8332780;28;20240;-75
2022/12/26 17:36:49;;;;;;;15.55;7.65;;;;;10.00;96408.00;;;;8332591;28;20200;-74
2022/12/26 17:41:24;;;;;;;19.88;8.90;;;;;10.00;96413.00;;;;8332956;28;20527;-74
2022/12/26 17:46:02;;;;;;;12.88;6.35;;;;;10.00;96411.00;;;;8333015;28;20225;-75
2022/12/26 17:50:42;;;;;;;17.08;8.23;;;;;10.00;96426.00;;;;8331323;28;20197;-75
2022/12/26 17:55:14;;;;;;;21.27;13.13;;;;;10.00;96407.00;;;;8329757;28;20198;-75
2022/12/26 17:59:53;;;;;;;14.23;7.68;;;;;10.00;96413.00;;;;8333510;28;20194;-74
2022/12/26 18:09:23;;;;;;;11.27;6.00;;;;;10.00;96415.00;;;;8332660;28;20175;-76
2022/12/26 18:13:48;;;;;;;11.02;5.75;;;;;10.00;96431.00;;;;8332211;28;20257;-75
2022/12/26 18:18:25;;;;;;;14.98;6.07;;;;;10.00;96424.00;;;;8314364;28;20199;-74
2022/12/26 18:23:11;;;;;;;10.27;6.15;;;;;9.90;96422.00;;;;8331544;28;20264;-73
2022/12/26 18:27:41;;;;;;;11.30;6.15;;;;;9.90;96408.00;;;;8333111;28;20539;-74
2022/12/26 18:32:21;;;;;;;14.95;7.53;;;;;9.90;96416.00;;;;8331782;28;20247;-74
2022/12/26 18:36:52;;;;;;;14.82;8.18;;;;;9.90;96413.00;;;;8332461;28;20202;-73
2022/12/26 18:41:30;;;;;;;11.82;5.72;;;;;9.80;96416.00;;;;8332038;28;20224;-73
2022/12/26 18:46:15;;;;;;;10.90;5.55;;;;;9.80;96412.00;;;;8331842;28;20224;-73
2022/12/26 18:50:43;;;;;;;12.05;6.13;;;;;9.80;96412.00;;;;8331680;28;20627;-73
2022/12/26 18:55:19;;;;;;;11.05;4.43;;;;;9.80;96401.00;;;;8332154;28;20534;-74
2022/12/26 18:59:58;;;;;;;12.23;6.18;;;;;9.80;96404.00;;;;8331716;28;20197;-74
2022/12/26 19:04:04;;;;;;;8.43;5.47;;;;;9.80;96406.00;;;;8330764;28;20221;-74
2022/12/26 19:08:35;;;;;;;12.77;5.78;;;;;9.80;96404.00;;;;8330917;28;20240;-74
2022/12/26 19:13:13;;;;;;;10.48;4.50;;;;;9.70;96403.00;;;;8330283;28;20256;-74
2022/12/26 19:17:47;;;;;;;10.38;5.20;;;;;9.70;96416.00;;;;8330419;28;20199;-73
2022/12/26 19:22:25;;;;;;;8.35;4.95;;;;;9.70;96401.00;;;;8330471;28;20546;-73
2022/12/26 19:26:59;;;;;;;5.82;4.13;;;;;9.70;96415.00;;;;8331106;28;20225;-72
2022/12/26 19:31:36;;;;;;;9.65;5.38;;;;;9.60;96428.00;;;;8332571;28;20193;-72
2022/12/26 19:36:13;;;;;;;7.20;4.47;;;;;9.60;96431.00;;;;8336493;28;20205;-72
2022/12/26 19:40:53;;;;;;;9.93;4.70;;;;;9.60;96423.00;;;;8336105;28;20539;-72
2022/12/26 19:45:29;;;;;;;7.47;4.53;;;;;9.70;96424.00;;;;8335825;28;20225;-73
2022/12/26 19:50:05;;;;;;;9.20;4.53;;;;;9.60;96423.00;;;;8335524;28;20204;-72
2022/12/26 19:54:42;;;;;;;7.55;4.32;;;;;9.60;96431.00;;;;8337108;28;20684;-72
2022/12/26 19:59:21;;;;;;;7.00;3.85;;;;;9.60;96438.00;;;;8335827;28;20197;-71
2022/12/26 20:03:24;;;;;;;7.07;3.17;;;;;9.60;96442.00;;;;8336057;28;20605;-72
2022/12/26 20:07:59;;;;;;;6.85;3.22;;;;;9.60;96430.00;;;;8335428;28;20562;-72
2022/12/26 20:12:38;;;;;;;4.32;2.90;;;;;9.50;96448.00;;;;8335213;28;20193;-72
2022/12/26 20:17:14;;;;;;;3.90;2.83;;;;;9.50;96466.00;;;;8334803;28;20248;-72
2022/12/26 20:21:49;;;;;;;3.83;2.90;;;;;9.50;96480.00;;;;8332315;28;20288;-75
2022/12/26 20:26:23;;;;;;;5.30;2.90;;;;;9.50;96498.00;;;;8334997;28;20659;-75
2022/12/26 20:31:01;;;;;;;5.33;3.50;;;;;9.50;96509.00;;;;8334419;28;20240;-74
2022/12/26 20:35:08;;;;;;;3.45;2.75;;;;;9.50;96519.00;;;;8335778;28;20229;-75
2022/12/26 20:39:39;;;;;;;3.83;2.20;;;;;9.40;96534.00;;;;8333404;28;20193;-73
2022/12/26 20:44:17;;;;;;;1.30;1.30;;;;;9.20;96531.00;;;;8333148;28;20562;-75
2022/12/26 20:48:51;;;;;;;0.87;0.87;;;;;9.00;96544.00;;;;8317813;28;20634;-77
2022/12/26 20:53:30;;;;;;;0.90;0.90;;;;;8.70;96546.00;;;;8333692;28;20693;-77
2022/12/26 20:57:35;;;;;;;1.73;0.70;;;;;8.50;96560.00;;;;8334003;28;20539;-78
2022/12/26 21:01:40;;;;;;;0.85;0.85;;;;;8.50;96556.00;;;;8334780;28;20221;-75
2022/12/26 21:06:17;;;;;;;1.07;0.80;;;;;8.40;96545.00;;;;8333471;28;20804;-74
2022/12/26 21:10:52;;;;;;;0.73;0.73;;;;;8.40;96554.00;;;;8334778;28;20286;-74
2022/12/26 21:15:29;;;;;;;0.87;0.87;;;;;8.30;96526.00;;;;8331985;28;20264;-73
2022/12/26 21:20:10;;;;;;;0.50;0.50;;;;;8.20;96523.00;;;;8333888;28;20574;-74
2022/12/26 21:24:50;;;;;;;0.73;0.73;;;;;8.20;96536.00;;;;8334450;28;20214;-74
2022/12/26 21:29:22;;;;;;;0.90;0.90;;;;;8.20;96524.00;;;;8333758;28;20205;-74
2022/12/26 21:33:54;;;;;;;1.60;0.97;;;;;8.20;96527.00;;;;8333230;28;20221;-73
2022/12/26 21:37:57;;;;;;;0.90;0.90;;;;;8.10;96538.00;;;;8332790;28;20206;-73
2022/12/26 21:42:34;;;;;;;0.80;0.80;;;;;8.00;96532.00;;;;8332541;28;20575;-73
2022/12/26 21:47:15;;;;;;;2.03;0.90;;;;;7.80;96545.00;;;;8332426;28;20226;-73
2022/12/26 21:51:23;;;;;;;1.30;0.80;;;;;7.70;96567.00;;;;8334098;28;20205;-73
2022/12/26 21:56:03;;;;;;;1.93;1.07;;;;;7.70;96584.00;;;;8331556;28;20251;-73
2022/12/26 22:00:07;;;;;;;3.17;1.10;;;;;7.70;96579.00;;;;8333239;28;20527;-73
2022/12/26 22:04:45;;;;;;;2.50;1.13;;;;;7.60;96582.00;;;;8329732;28;20225;-73
2022/12/26 22:08:48;;;;;;;1.00;0.90;;;;;7.60;96597.00;;;;8332562;28;20573;-73
2022/12/26 22:12:58;;;;;;;1.30;1.20;;;;;7.70;96595.00;;;;8331132;28;20194;-73
2022/12/26 22:17:08;;;;;;;1.10;1.10;;;;;7.70;96604.00;;;;8332155;28;20197;-73
2022/12/26 22:21:46;;;;;;;1.03;1.00;;;;;7.80;96614.00;;;;8331250;28;20193;-74
2022/12/26 22:25:53;;;;;;;1.00;1.00;;;;;7.80;96613.00;;;;8331800;28;20233;-73
2022/12/26 22:30:27;;;;;;;1.10;1.10;;;;;7.90;96627.00;;;;8330664;28;20254;-73
2022/12/26 22:34:32;;;;;;;1.83;1.17;;;;;7.90;96645.00;;;;8332110;28;20246;-74
2022/12/26 22:38:43;;;;;;;2.13;1.00;;;;;8.00;96649.00;;;;8331794;28;20631;-74
2022/12/26 22:42:46;;;;;;;2.60;1.20;;;;;8.10;96661.00;;;;8331288;28;20193;-74
2022/12/26 22:46:56;;;;;;;2.23;1.40;;;;;8.10;96665.00;;;;8331728;28;20670;-74
2022/12/26 22:50:59;;;;;;;2.90;1.10;;;;;8.10;96659.00;;;;8328564;28;20201;-74
2022/12/26 22:55:05;;;;;;;2.00;1.33;;;;;8.10;96663.00;;;;8330944;28;20292;-74
2022/12/26 22:59:40;;;;;;;3.20;1.20;;;;;8.10;96659.00;;;;8332385;28;20205;-74
2022/12/26 23:04:05;;;;;;;1.93;1.30;;;;;8.10;96669.00;;;;8332371;28;20225;-75
2022/12/26 23:08:39;;;;;;;1.70;1.30;;;;;8.10;96680.00;;;;8319701;28;20237;-75
2022/12/26 23:12:44;;;;;;;1.60;1.50;;;;;8.10;96664.00;;;;8338993;28;20205;-75
2022/12/26 23:16:52;;;;;;;2.92;1.35;;;;;8.10;96674.00;;;;8337195;28;20623;-75
2022/12/26 23:25:33;;;;;;;2.93;1.50;;;;;8.10;96671.00;;;;8336209;28;20296;-75
2022/12/26 23:30:18;;;;;;;2.90;1.42;;;;;8.00;96672.00;;;;8336475;28;20263;-75
2022/12/26 23:34:48;;;;;;;2.03;1.50;;;;;7.90;96682.00;;;;8337118;28;20198;-76
2022/12/26 23:38:52;;;;;;;1.60;1.50;;;;;7.80;96697.00;;;;8336411;28;20284;-76
2022/12/26 23:42:55;;;;;;;3.53;1.43;;;;;7.80;96700.00;;;;8336821;28;20197;-76
2022/12/26 23:47:35;;;;;;;1.20;1.20;;;;;7.80;96700.00;;;;8336786;28;20221;-77
2022/12/26 23:51:38;;;;;;;1.50;1.40;;;;;7.80;96699.00;;;;8336926;28;20198;-77
2022/12/26 23:55:41;;;;;;;3.13;1.30;;;;;7.80;96703.00;;;;8335986;28;20239;-77
